Thursday, April 17, 2014, 8:16 PM EDT

KRIC, Richmond International Airport

Location: Sandston, VA, United States Lat: 37.517
Local Time: 8:16 PM EDT ( 0:16 GMT) Lon: -77.317
Time Zone: US/Eastern Elev: 167 ft

Show me the last for .
Show Decoded

2014-04-17 19:54 METAR KRIC 172354Z 09007KT 10SM FEW300 10/01 A3052 RMK AO2 SLP340 T01000006
                 10156 20094 50003 $ =
2014-04-17 18:54 METAR KRIC 172254Z 09009KT 10SM BKN300 12/00 A3052 RMK AO2 SLP342 T01170000 $ =
2014-04-17 17:54 METAR KRIC 172154Z 07010KT 10SM BKN300 13/01 A3052 RMK AO2 SLP340 T01330006 $ =
2014-04-17 16:54 METAR KRIC 172054Z 08009KT 10SM OVC300 15/01 A3051 RMK AO2 SLP337 T01500006
                 56017 =
2014-04-17 15:54 METAR KRIC 171954Z 11007KT 060V130 10SM OVC250 15/00 A3052 RMK AO2 SLP341
                 T01500000 =
2014-04-17 14:54 METAR KRIC 171854Z 04011KT 10SM OVC250 15/00 A3054 =
2014-04-17 13:54 METAR KRIC 171754Z 09007KT 040V120 10SM OVC250 15/01 A3056 RMK AO2 SLP354
                 T01500006 10150 20050 58019 =
2014-04-17 12:54 METAR KRIC 171654Z 04006G15KT 10SM FEW070 OVC250 13/00 A3058 RMK AO2 SLP360
                 T01330000 =
2014-04-17 11:54 METAR KRIC 171554Z VRB06G14KT 10SM FEW070 BKN250 12/M01 A3060 RMK AO2 SLP369
                 T01171006 =
2014-04-17 10:54 METAR KRIC 171454Z 04009KT 010V070 10SM BKN250 11/M01 A3062 RMK AO2 SLP373
                 T01061011 53005 =
2014-04-17 09:54 METAR KRIC 171354Z 05010G17KT 10SM BKN250 09/M01 A3061 =
2014-04-17 08:54 METAR KRIC 171254Z 06007KT 10SM SCT250 07/M01 A3060 RMK AO2 SLP368 T00721011 =
2014-04-17 07:54 METAR KRIC 171154Z 03006KT 10SM FEW250 05/M01 A3060 RMK AO2 SLP368 T00501006
                 10050 20006 53021 =
2014-04-17 06:54 METAR KRIC 171054Z 02003KT 10SM FEW250 01/M02 A3057 RMK AO2 SLP359 T00111022 =
2014-04-17 05:54 METAR KRIC 170954Z 03004KT 10SM CLR 01/M02 A3055 RMK AO2 SLP352 T00111022 =
2014-04-17 04:54 METAR KRIC 170854Z 00000KT 10SM CLR 02/M02 A3054 RMK AO2 SLP346 T00171022 53005
                 =
2014-04-17 03:54 METAR KRIC 170754Z 00000KT 10SM CLR 02/M03 A3053 RMK AO2 SLP344 T00171028 =
2014-04-17 02:54 METAR KRIC 170654Z 04006KT 10SM CLR 02/M03 A3051 RMK AO2 SLP338 T00221028 =
2014-04-17 01:54 METAR KRIC 170554Z 04006KT 10SM CLR 02/M03 A3052 RMK AO2 SLP341 T00221033 10078
                 20022 51005 =
2014-04-17 00:54 METAR KRIC 170454Z 04005KT 10SM CLR 03/M04 A3052 RMK AO2 SLP340 T00331039
                 401170006 =
2014-04-16 23:54 METAR KRIC 170354Z 04005KT 10SM CLR 04/M04 A3051 RMK AO2 SLP338 T00391044 =
2014-04-16 22:54 METAR KRIC 170254Z 06003KT 10SM CLR 05/M05 A3051 RMK AO2 SLP336 T00501050 51023
                 =
2014-04-16 21:54 METAR KRIC 170154Z 08004KT 10SM CLR 05/M06 A3050 RMK AO2 SLP333 T00501056 =
2014-04-16 20:54 METAR KRIC 170054Z 06004KT 10SM CLR 07/M07 A3047 RMK AO2 SLP323 T00721067 =

Support USWX by starting your Amazon purchase here.